»·PEaware :: N7375Q KCVO-KDLS

N7375Q :: KCVO-KDLS

FLIGHT INFORMATION

Flight Status: Arrived
Operator: Privately registered:
United States
More flights under this callsign
Pilot: Ion I. (24133)
Aircraft: SOCATA TBM-900
(TBM9)
More flights by this aircraft type
Origin: KCVO Corvallis Mun
United States
Destination: KDLS Columbia Gorge Regl/The Dalle
United States
More flights between these airports :: More routes between these airports
Route: SHEDD3 SHEDD PUTZZ KUKTE KDLS
File this flight plan on PilotEdge
Remarks:
Altitude:
(Current/Filed)
19,000ft
Speed:
(Current/Filed)
250kts
Departed: 10-Aug-20 12:06 PM
Arrived: 10-Aug-20 12:43 PM
Distance/Time
Traveled:
112nm/0:37
Distance/Time
To Go:
Arrived

Flight Plot

Page will automatically refresh every two minutes.

Flight plan parsing failed; only flown route is shown


Map Options




Map Legend


Flown Route
Filed Route
Departure Airport
Arrival Airport
Navaid (VOR, NDB)
Fix

Horizontal Profiles

Position Reports

Time Latitude Longitude Heading Altitude Ground
Speed
10-Aug-20 11:54 44.503132 -123.286362 200 242ft 0kts
10-Aug-20 11:55 44.503132 -123.286362 200 242ft 0kts
10-Aug-20 11:56 44.503132 -123.286362 200 242ft 0kts
10-Aug-20 11:57 44.503132 -123.286362 200 243ft 0kts
10-Aug-20 11:58 44.502449 -123.286703 206 243ft 6kts
10-Aug-20 11:59 44.502223 -123.289422 205 243ft 9kts
10-Aug-20 12:00 44.501967 -123.289569 201 243ft 4kts
10-Aug-20 12:01 44.498414 -123.290413 186 246ft 17kts
10-Aug-20 12:02 44.492736 -123.291381 186 246ft 22kts
10-Aug-20 12:03 44.487579 -123.292440 268 246ft 3kts
10-Aug-20 12:04 44.487655 -123.293367 282 246ft 8kts
10-Aug-20 12:05 44.501949 -123.291216 12 810ft 101kts
10-Aug-20 12:06 44.498777 -123.255686 111 2522ft 133kts
10-Aug-20 12:07 44.487687 -123.194905 95 3034ft 199kts
10-Aug-20 12:08 44.479523 -123.121623 94 4845ft 182kts
10-Aug-20 12:09 44.493341 -123.061935 45 6859ft 168kts
10-Aug-20 12:10 44.525456 -123.013060 45 8847ft 173kts
10-Aug-20 12:11 44.564576 -122.953723 45 9010ft 233kts
10-Aug-20 12:12 44.610211 -122.884281 45 9028ft 247kts
10-Aug-20 12:13 44.657304 -122.812454 45 9026ft 251kts
10-Aug-20 12:14 44.702667 -122.743061 45 10113ft 219kts
10-Aug-20 12:15 44.741275 -122.683876 44 11999ft 199kts
10-Aug-20 12:16 44.778249 -122.627097 44 13971ft 198kts
10-Aug-20 12:17 44.815912 -122.569143 44 15976ft 205kts
10-Aug-20 12:18 44.854532 -122.509575 43 17967ft 207kts
10-Aug-20 12:19 44.894358 -122.448129 43 19160ft 236kts
10-Aug-20 12:20 44.943719 -122.371699 44 19141ft 281kts
10-Aug-20 12:21 44.997541 -122.288050 45 19128ft 291kts
10-Aug-20 12:22 45.052229 -122.202805 45 19127ft 292kts
10-Aug-20 12:23 45.105614 -122.115622 63 19075ft 298kts
10-Aug-20 12:24 45.132263 -122.004443 69 19102ft 298kts
10-Aug-20 12:25 45.160097 -121.888088 69 17330ft 322kts
10-Aug-20 12:26 45.188911 -121.766960 69 15340ft 326kts
10-Aug-20 12:27 45.217652 -121.645542 69 13346ft 324kts
10-Aug-20 12:28 45.245525 -121.527129 69 11868ft 302kts
10-Aug-20 12:29 45.271986 -121.414112 69 9854ft 292kts
10-Aug-20 12:30 45.295164 -121.314657 69 8974ft 236kts
10-Aug-20 12:31 45.314830 -121.229917 69 9047ft 216kts
10-Aug-20 12:32 45.342752 -121.157088 9 7537ft 214kts
10-Aug-20 12:33 45.398060 -121.144462 36 5534ft 207kts
10-Aug-20 12:34 45.433009 -121.094079 39 4558ft 162kts
10-Aug-20 12:35 45.469802 -121.087148 323 3770ft 117kts
10-Aug-20 12:36 45.494000 -121.111919 323 3178ft 114kts
10-Aug-20 12:37 45.519215 -121.123794 18 2438ft 85kts
10-Aug-20 12:38 45.540947 -121.116017 340 1630ft 80kts
10-Aug-20 12:39 45.558995 -121.123199 340 1629ft 84kts
10-Aug-20 12:40 45.581285 -121.131678 331 1256ft 87kts
10-Aug-20 12:41 45.602012 -121.151666 324 703ft 89kts
10-Aug-20 12:42 45.618534 -121.168367 324 226ft 32kts
10-Aug-20 12:43 45.619315 -121.172072 212 218ft 15kts
10-Aug-20 12:44 45.618640 -121.172261 137 219ft 0kts
10-Aug-20 12:45 45.618640 -121.172261 137 219ft 0kts

Navigation Log

Ident Type
Flight plan parsing failed, navigation log unavailable